Time;durP1;ratioP1;P1;durP2;ratioP2;P2;SDS_P1;SDS_P2;PMS_P1;PMS_P2;Temp;Humidity;BMP_temperature;BMP_pressure;BME280_temperature;BME280_humidity;BME280_pressure;Samples;Min_cycle;Max_cycle;Signal;HPM_P1;HPM_P2
2021/01/09 00:00:10;;;;;;;29.08;17.02;;;;;;;13.91;61.52;98804.94;5034680;28;20025;-85
2021/01/09 00:02:36;;;;;;;26.77;16.17;;;;;;;14.22;61.69;98866.97;5035909;28;20026;-79
2021/01/09 00:05:02;;;;;;;24.92;16.90;;;;;;;13.46;61.71;98756.53;5035640;28;20064;-79
2021/01/09 00:07:30;;;;;;;26.48;15.50;;;;;;;13.65;61.30;98805.16;5035820;28;20417;-81
2021/01/09 00:09:56;;;;;;;23.35;14.75;;;;;;;13.54;61.82;98797.91;5035406;28;20438;-79
2021/01/09 00:12:21;;;;;;;23.05;14.45;;;;;;;13.22;61.54;98736.91;5035789;28;20033;-79
2021/01/09 00:14:46;;;;;;;21.05;13.65;;;;;;;13.64;61.73;98811.50;5035617;28;20040;-82
2021/01/09 00:17:12;;;;;;;21.08;14.00;;;;;;;13.55;61.56;98826.03;5035654;28;20029;-79
2021/01/09 00:19:37;;;;;;;22.23;12.98;;;;;;;13.92;61.43;98883.53;5035668;28;20028;-79
2021/01/09 00:22:03;;;;;;;24.10;11.98;;;;;;;13.58;61.46;98838.88;5034404;28;20040;-77
2021/01/09 00:24:28;;;;;;;19.05;13.25;;;;;;;13.66;61.45;98858.00;5035461;28;20032;-79
2021/01/09 00:26:54;;;;;;;19.70;12.52;;;;;;;13.20;60.88;98802.56;5035282;28;20032;-78
2021/01/09 00:29:19;;;;;;;19.45;11.77;;;;;;;13.82;60.97;98909.72;5035226;28;20022;-81
2021/01/09 00:31:45;;;;;;;18.20;10.95;;;;;;;13.60;60.78;98868.66;5034168;28;20492;-81
2021/01/09 00:34:10;;;;;;;16.70;10.27;;;;;;;13.62;60.93;98893.94;5035139;28;20035;-79
2021/01/09 00:36:35;;;;;;;16.52;10.15;;;;;;;13.76;60.63;98899.16;5034224;28;20025;-79
2021/01/09 00:39:04;;;;;;;16.83;10.05;;;;;;;13.67;60.41;98888.00;5035164;28;20116;-80
2021/01/09 00:41:31;;;;;;;13.35;9.27;;;;;;;13.79;60.63;98904.03;5035087;28;20410;-81
2021/01/09 00:43:57;;;;;;;15.60;8.93;;;;;;;13.74;60.18;98901.22;5034891;28;20108;-81
2021/01/09 00:46:23;;;;;;;15.82;9.43;;;;;;;13.78;60.65;98902.41;5035055;28;20109;-81
2021/01/09 00:48:49;;;;;;;12.90;7.85;;;;;;;13.38;60.21;98844.31;5034908;28;20109;-78
2021/01/09 00:51:16;;;;;;;13.60;8.15;;;;;;;13.67;60.30;98906.56;5033923;28;20406;-80
2021/01/09 00:53:41;;;;;;;11.50;6.80;;;;;;;13.21;60.21;98835.19;5034886;28;20436;-79
2021/01/09 00:56:07;;;;;;;9.77;5.95;;;;;;;13.52;60.02;98901.53;5033724;28;20051;-81
2021/01/09 00:58:33;;;;;;;10.82;6.43;;;;;;;13.39;59.99;98884.88;5033943;28;20029;-83
2021/01/09 01:00:59;;;;;;;9.25;6.10;;;;;;;13.53;60.18;98908.47;5034808;28;20064;-81
2021/01/09 01:03:24;;;;;;;11.25;6.18;;;;;;;13.54;59.74;98912.75;5034836;28;20030;-80
2021/01/09 01:05:50;;;;;;;9.18;5.60;;;;;;;13.42;60.03;98919.75;5034793;28;20029;-79
2021/01/09 01:08:15;;;;;;;7.10;5.13;;;;;;;13.23;60.03;98905.53;5034770;28;20033;-78
2021/01/09 01:10:41;;;;;;;8.00;4.40;;;;;;;13.40;59.85;98920.97;5033613;28;20033;-79
2021/01/09 01:13:06;;;;;;;7.38;4.90;;;;;;;13.30;59.88;98914.28;5034573;28;20029;-79
2021/01/09 01:15:31;;;;;;;7.13;4.35;;;;;;;13.32;59.66;98924.66;5034833;28;20108;-80
2021/01/09 01:17:57;;;;;;;5.88;3.83;;;;;;;13.24;60.08;98901.84;5034531;28;20026;-78
2021/01/09 01:20:22;;;;;;;5.25;3.28;;;;;;;13.20;59.88;98889.22;5033558;28;20100;-79
2021/01/09 01:22:48;;;;;;;4.32;2.95;;;;;;;13.31;59.81;98907.94;5034605;28;20120;-80
2021/01/09 01:25:13;;;;;;;3.42;2.80;;;;;;;13.19;59.66;98895.56;5033543;28;20036;-83
2021/01/09 01:27:40;;;;;;;4.22;2.67;;;;;;;13.10;59.61;98881.69;5033436;28;20033;-79
2021/01/09 01:30:06;;;;;;;2.17;1.80;;;;;;;13.11;59.21;98885.16;5034348;28;20428;-82
2021/01/09 01:32:32;;;;;;;3.20;2.33;;;;;;;13.34;59.31;98934.03;5033526;28;20033;-80
2021/01/09 01:34:57;;;;;;;2.47;2.10;;;;;;;13.21;59.49;98914.72;5034374;28;20040;-82
2021/01/09 01:37:23;;;;;;;1.90;1.20;;;;;;;13.08;59.05;98898.84;5034432;28;20036;-78
2021/01/09 01:39:48;;;;;;;1.90;1.52;;;;;;;13.00;59.24;98883.97;5034692;28;20022;-79
2021/01/09 01:42:13;;;;;;;2.90;1.77;;;;;;;12.72;59.32;98848.00;5033227;28;20029;-80
2021/01/09 01:44:39;;;;;;;2.70;1.77;;;;;;;13.22;59.74;98951.63;5034402;28;20033;-79
2021/01/09 01:47:14;;;;;;;2.63;1.83;;;;;;;13.12;59.63;98943.25;5034267;28;20029;-81
2021/01/09 01:49:40;;;;;;;3.95;1.77;;;;;;;13.15;59.75;98972.00;5034373;28;20041;-81
2021/01/09 01:52:06;;;;;;;2.72;1.88;;;;;;;13.17;59.87;98955.91;5034243;28;20049;-77
2021/01/09 01:54:31;;;;;;;3.08;1.90;;;;;;;13.16;59.77;98954.25;5034465;28;20112;-82
2021/01/09 01:56:58;;;;;;;4.85;1.90;;;;;;;12.72;60.09;98898.34;5036328;28;20036;-79
2021/01/09 01:59:23;;;;;;;3.97;1.92;;;;;;;13.07;59.73;98948.38;5038226;28;20420;-79
2021/01/09 02:01:49;;;;;;;3.85;2.10;;;;;;;13.13;59.60;98952.84;5038197;28;20026;-81
2021/01/09 02:04:15;;;;;;;4.88;2.20;;;;;;;12.70;59.77;98910.97;5038117;28;20473;-81
2021/01/09 02:06:42;;;;;;;3.85;2.70;;;;;;;12.54;60.38;98899.97;5038352;28;20033;-80
2021/01/09 02:09:14;;;;;;;4.18;2.22;;;;;;;13.02;59.97;98974.69;5037812;28;20034;-84
2021/01/09 02:11:55;;;;;;;4.45;2.85;;;;;;;12.80;60.60;98952.94;5037905;28;20392;-81
2021/01/09 02:14:42;;;;;;;3.35;2.00;;;;;;;12.86;60.51;98991.03;5038146;28;20030;-83
2021/01/09 02:17:09;;;;;;;3.28;1.90;;;;;;;12.75;60.86;98970.47;5036626;28;20423;-82
2021/01/09 02:19:38;;;;;;;3.05;1.77;;;;;;;12.22;60.39;98905.09;5037756;28;20049;-80
2021/01/09 02:22:05;;;;;;;3.38;1.42;;;;;;;12.34;60.42;98940.53;5037483;28;20079;-81
2021/01/09 02:24:31;;;;;;;2.75;1.70;;;;;;;12.30;60.44;98962.31;5037730;28;20477;-81
2021/01/09 02:26:58;;;;;;;2.10;1.20;;;;;;;12.18;60.52;98979.81;5037591;28;20108;-80
2021/01/09 02:29:24;;;;;;;2.03;1.30;;;;;;;12.44;61.07;99027.47;5037495;28;20032;-78
2021/01/09 02:31:59;;;;;;;2.28;1.55;;;;;;;11.95;61.62;98983.63;5037663;28;20029;-80
2021/01/09 02:34:29;;;;;;;2.28;1.65;;;;;;;11.96;61.65;98990.56;5037494;28;20022;-79
2021/01/09 02:36:55;;;;;;;2.00;1.60;;;;;;;12.18;61.71;99045.97;5037395;28;20026;-81
2021/01/09 02:39:21;;;;;;;9.93;2.20;;;;;;;12.14;62.09;99047.38;5036428;28;20028;-81
2021/01/09 02:41:48;;;;;;;4.10;1.73;;;;;;;11.72;62.72;99009.56;5036464;28;20104;-77
2021/01/09 02:44:14;;;;;;;3.05;1.85;;;;;;;11.44;62.74;98967.38;5037525;28;20100;-79
2021/01/09 02:46:39;;;;;;;1.88;1.30;;;;;;;11.44;62.85;98991.97;5036447;28;20041;-80
2021/01/09 02:49:07;;;;;;;2.72;1.77;;;;;;;11.78;63.35;99057.22;5037227;28;20033;-78
2021/01/09 02:51:33;;;;;;;3.05;1.65;;;;;;;10.85;63.53;98924.78;5037286;28;20040;-79
2021/01/09 02:53:58;;;;;;;1.33;1.00;;;;;;;11.66;63.77;99081.75;5036017;28;20057;-78
2021/01/09 02:56:24;;;;;;;1.60;1.27;;;;;;;11.27;64.42;99054.09;5037178;28;20025;-78
2021/01/09 02:58:49;;;;;;;1.77;1.23;;;;;;;11.07;63.75;99032.81;5037243;28;20030;-76
2021/01/09 03:01:14;;;;;;;1.98;1.38;;;;;;;11.00;64.10;99034.59;5036966;28;20037;-78
2021/01/09 03:03:40;;;;;;;2.33;1.33;;;;;;;11.34;64.29;99099.88;5037127;28;20083;-77
2021/01/09 03:06:05;;;;;;;1.20;1.00;;;;;;;11.40;64.12;99075.31;5036859;28;20026;-79
2021/01/09 03:08:30;;;;;;;1.60;0.90;;;;;;;11.30;64.71;99064.28;5035838;28;20032;-81
2021/01/09 03:10:56;;;;;;;1.35;0.85;;;;;;;10.75;64.77;99014.91;5036908;28;20455;-76
2021/01/09 03:13:21;;;;;;;2.25;1.00;;;;;;;11.26;64.78;99086.00;5035823;28;20090;-77
2021/01/09 03:15:47;;;;;;;0.70;0.70;;;;;;;11.02;64.88;99068.72;5035797;28;20128;-78
2021/01/09 03:18:12;;;;;;;1.25;0.70;;;;;;;11.02;64.99;99068.72;5036610;28;20057;-78
2021/01/09 03:20:38;;;;;;;1.42;0.75;;;;;;;11.11;64.83;99083.44;5036740;28;20029;-79
2021/01/09 03:23:03;;;;;;;0.82;0.73;;;;;;;11.26;64.47;99105.31;5036465;28;20055;-79
2021/01/09 03:25:29;;;;;;;1.88;1.02;;;;;;;11.18;65.06;99089.59;5036572;28;20033;-81
2021/01/09 03:27:54;;;;;;;1.27;0.68;;;;;;;11.27;64.58;99101.66;5035394;28;20375;-76
2021/01/09 03:30:20;;;;;;;1.50;0.98;;;;;;;10.99;64.69;99054.09;5036356;28;20025;-80
2021/01/09 03:32:45;;;;;;;1.25;0.70;;;;;;;11.25;64.57;99105.50;5036507;28;20068;-78
2021/01/09 03:35:11;;;;;;;0.88;0.85;;;;;;;11.06;64.14;99094.56;5036284;28;20044;-78
2021/01/09 03:37:36;;;;;;;1.13;0.95;;;;;;;11.20;63.89;99114.00;5036282;28;20035;-78
2021/01/09 03:40:03;;;;;;;1.50;1.00;;;;;;;10.95;64.06;99096.94;5036093;28;20411;-81
2021/01/09 03:42:28;;;;;;;1.20;0.90;;;;;;;10.62;64.04;99042.03;5036289;28;20112;-82
2021/01/09 03:44:53;;;;;;;1.02;0.80;;;;;;;10.50;64.17;99041.72;5035103;28;20056;-79
2021/01/09 03:47:19;;;;;;;1.67;0.95;;;;;;;10.73;63.80;99075.81;5036306;28;20446;-78
2021/01/09 03:49:44;;;;;;;1.52;1.10;;;;;;;10.52;64.10;99067.94;5036157;28;20037;-80
2021/01/09 03:52:10;;;;;;;1.65;0.90;;;;;;;10.61;64.33;99103.75;5035833;28;20049;-78
2021/01/09 03:54:35;;;;;;;1.77;0.70;;;;;;;10.93;64.54;99157.88;5034925;28;20112;-77
2021/01/09 03:57:00;;;;;;;1.70;0.80;;;;;;;10.61;64.27;99137.25;5035879;28;20032;-77
2021/01/09 03:59:26;;;;;;;2.63;1.10;;;;;;;10.59;64.97;99142.72;5035919;28;20036;-77
2021/01/09 04:01:51;;;;;;;2.00;1.20;;;;;;;10.29;65.17;99117.41;5034874;28;20104;-78
2021/01/09 04:04:16;;;;;;;1.35;1.00;;;;;;;9.76;65.45;99029.75;5034764;28;20084;-76
2021/01/09 04:06:42;;;;;;;1.95;1.48;;;;;;;10.69;65.48;99174.91;5035852;28;20032;-77
2021/01/09 04:09:07;;;;;;;1.60;1.20;;;;;;;10.68;65.33;99175.09;5035588;28;20029;-76
2021/01/09 04:11:33;;;;;;;1.50;1.17;;;;;;;10.48;65.35;99156.41;5035690;28;20026;-78
2021/01/09 04:13:58;;;;;;;1.58;1.00;;;;;;;10.35;65.26;99135.13;5035642;28;20420;-76
2021/01/09 04:16:23;;;;;;;1.67;1.13;;;;;;;10.49;65.33;99158.03;5034503;28;20079;-76
2021/01/09 04:18:49;;;;;;;1.15;1.08;;;;;;;10.58;65.80;99190.41;5035177;28;20118;-76
2021/01/09 04:21:14;;;;;;;1.58;1.17;;;;;;;10.24;65.57;99143.53;5034372;28;20108;-76
2021/01/09 04:23:39;;;;;;;1.58;1.48;;;;;;;10.07;65.66;99104.13;5034418;28;20098;-77
2021/01/09 04:26:10;;;;;;;2.85;1.08;;;;;;;10.65;66.22;99192.13;5035240;28;20029;-78
2021/01/09 04:28:36;;;;;;;1.70;1.30;;;;;;;10.67;65.93;99198.03;5034353;28;20029;-77
2021/01/09 04:31:01;;;;;;;1.23;1.13;;;;;;;9.96;65.47;99091.44;5035129;28;20280;-77
2021/01/09 04:33:27;;;;;;;2.22;1.25;;;;;;;10.34;65.90;99144.03;5035376;28;20032;-76
2021/01/09 04:35:52;;;;;;;1.45;1.30;;;;;;;10.74;65.64;99206.03;5035350;28;20104;-77
2021/01/09 04:38:17;;;;;;;1.85;1.67;;;;;;;10.44;65.55;99179.72;5035200;28;20029;-77
2021/01/09 04:40:43;;;;;;;2.05;1.58;;;;;;;10.59;66.58;99229.00;5033961;28;20029;-77
2021/01/09 04:43:08;;;;;;;2.80;1.63;;;;;;;10.02;66.52;99132.06;5034994;28;20038;-81
2021/01/09 04:45:34;;;;;;;1.98;1.30;;;;;;;10.37;66.11;99196.44;5035186;28;20057;-77
2021/01/09 04:48:01;;;;;;;1.70;1.60;;;;;;;10.42;66.65;99199.38;5034923;28;20060;-76
2021/01/09 04:50:27;;;;;;;1.50;1.40;;;;;;;10.27;66.13;99183.53;5035009;28;20026;-77
2021/01/09 04:52:55;;;;;;;3.05;1.80;;;;;;;10.24;66.75;99191.00;5034750;28;20052;-76
2021/01/09 04:55:20;;;;;;;3.38;2.67;;;;;;;10.54;66.83;99257.78;5034934;28;20406;-76
2021/01/09 04:57:46;;;;;;;3.05;2.10;;;;;;;10.41;66.82;99245.25;5034895;28;20113;-76
2021/01/09 05:00:12;;;;;;;1.98;1.80;;;;;;;10.32;66.75;99251.59;5034778;28;20037;-77
2021/01/09 05:02:38;;;;;;;1.95;1.73;;;;;;;10.55;66.31;99276.09;5033848;28;20063;-76
2021/01/09 05:05:04;;;;;;;2.15;1.80;;;;;;;10.53;66.43;99264.88;5034845;28;20053;-75
2021/01/09 05:07:30;;;;;;;2.05;1.85;;;;;;;10.50;66.63;99262.63;5034901;28;20030;-77
2021/01/09 05:10:04;;;;;;;2.60;2.40;;;;;;;10.42;66.92;99266.19;5034630;28;20033;-76
2021/01/09 05:12:35;;;;;;;2.40;2.00;;;;;;;10.39;66.69;99269.16;5034726;28;20021;-76
2021/01/09 05:15:01;;;;;;;1.77;1.65;;;;;;;10.21;66.56;99244.16;5034627;28;20029;-76
2021/01/09 05:17:27;;;;;;;1.80;1.55;;;;;;;10.33;66.43;99274.34;5034988;28;20396;-76
2021/01/09 05:19:52;;;;;;;2.58;2.17;;;;;;;10.36;66.86;99297.72;5034678;28;20057;-77
2021/01/09 05:22:18;;;;;;;2.83;2.40;;;;;;;9.85;66.64;99264.13;5034517;28;20455;-76
2021/01/09 05:24:48;;;;;;;2.85;2.13;;;;;;;10.14;66.30;99302.88;5033519;28;20033;-78
2021/01/09 05:27:16;;;;;;;2.63;1.98;;;;;;;10.16;65.98;99313.25;5033371;28;20022;-76
2021/01/09 05:29:42;;;;;;;2.35;1.90;;;;;;;10.18;65.93;99308.63;5034405;28;20112;-75
2021/01/09 05:32:08;;;;;;;2.20;2.00;;;;;;;10.18;65.97;99327.91;5037185;28;20116;-78
2021/01/09 05:34:52;;;;;;;4.03;2.42;;;;;;;9.59;65.24;99249.69;5038883;28;20029;-76
2021/01/09 05:37:25;;;;;;;2.90;2.38;;;;;;;9.81;64.85;99277.84;5038596;28;20029;-76
2021/01/09 05:39:57;;;;;;;3.47;2.65;;;;;;;9.55;65.01;99255.31;5038518;28;20347;-76
2021/01/09 05:42:25;;;;;;;3.30;1.85;;;;;;;10.26;64.63;99361.34;5038535;28;20342;-79
2021/01/09 05:44:55;;;;;;;4.07;2.33;;;;;;;10.02;64.82;99338.63;5037401;28;20450;-76
2021/01/09 05:47:30;;;;;;;5.40;3.33;;;;;;;10.06;64.46;99378.66;5038413;28;20032;-76
2021/01/09 05:49:58;;;;;;;6.25;3.75;;;;;;;10.06;64.84;99390.03;5038180;28;20090;-76
2021/01/09 05:52:25;;;;;;;7.28;4.05;;;;;;;9.85;65.12;99371.41;5037023;28;20132;-76
2021/01/09 05:54:55;;;;;;;5.03;3.28;;;;;;;9.85;64.90;99360.88;5038336;28;20087;-77
2021/01/09 05:57:26;;;;;;;4.90;3.45;;;;;;;9.88;64.64;99353.41;5037192;28;20025;-77
2021/01/09 05:59:52;;;;;;;5.90;4.15;;;;;;;9.99;64.86;99388.28;5038340;28;20458;-76
2021/01/09 06:02:18;;;;;;;7.43;4.50;;;;;;;9.79;64.84;99365.03;5038049;28;20064;-76
2021/01/09 06:04:44;;;;;;;9.13;4.35;;;;;;;9.64;65.27;99350.13;5038087;28;20083;-76
2021/01/09 06:07:21;;;;;;;9.93;5.45;;;;;;;9.99;65.13;99430.47;5036778;28;20022;-77
2021/01/09 06:10:05;;;;;;;8.05;4.53;;;;;;;9.94;64.76;99427.53;5037938;28;20028;-77
2021/01/09 06:12:36;;;;;;;7.22;5.32;;;;;;;9.72;65.08;99402.81;5037922;28;20021;-76
2021/01/09 06:15:05;;;;;;;8.10;5.35;;;;;;;9.68;65.21;99405.00;5038105;28;20022;-77
2021/01/09 06:17:33;;;;;;;8.77;4.95;;;;;;;9.90;65.09;99432.34;5037836;28;20104;-77
2021/01/09 06:19:58;;;;;;;5.72;4.18;;;;;;;9.73;65.72;99392.09;5037692;28;20026;-76
2021/01/09 06:22:26;;;;;;;8.55;5.28;;;;;;;10.03;65.45;99439.66;5037899;28;20055;-77
2021/01/09 06:24:52;;;;;;;6.75;4.60;;;;;;;9.55;65.19;99359.91;5037831;28;20039;-76
2021/01/09 06:27:24;;;;;;;10.45;4.80;;;;;;;9.41;65.25;99345.69;5037669;28;20351;-76
2021/01/09 06:29:54;;;;;;;6.55;4.95;;;;;;;9.78;65.43;99410.84;5037604;28;20036;-76
2021/01/09 06:32:27;;;;;;;7.63;5.40;;;;;;;9.74;65.11;99406.94;5037732;28;20030;-76
2021/01/09 06:34:54;;;;;;;10.30;5.53;;;;;;;10.07;65.48;99462.88;5037675;28;20029;-76
2021/01/09 06:37:23;;;;;;;5.70;4.53;;;;;;;10.03;65.22;99466.88;5037480;28;20111;-76
2021/01/09 06:39:50;;;;;;;5.25;4.32;;;;;;;9.56;65.30;99409.81;5037609;28;20025;-76
2021/01/09 06:42:18;;;;;;;6.25;4.30;;;;;;;9.81;65.03;99462.41;5036222;28;20420;-76
2021/01/09 06:44:53;;;;;;;4.38;3.47;;;;;;;10.02;64.98;99493.41;5037372;28;20424;-77
2021/01/09 06:47:30;;;;;;;5.68;3.95;;;;;;;9.82;64.88;99471.97;5037218;28;20040;-76
2021/01/09 06:50:18;;;;;;;5.45;3.75;;;;;;;9.86;64.50;99481.16;5036104;28;20029;-76
2021/01/09 06:52:52;;;;;;;4.38;3.85;;;;;;;9.99;64.71;99499.88;5036039;28;20053;-78
2021/01/09 06:55:37;;;;;;;6.88;5.57;;;;;;;10.01;64.51;99512.88;5035964;28;20029;-76
2021/01/09 06:58:04;;;;;;;9.50;6.25;;;;;;;10.03;64.25;99526.72;5037147;28;20025;-77
2021/01/09 07:00:30;;;;;;;9.63;6.78;;;;;;;9.93;64.53;99536.66;5037258;28;20025;-77
2021/01/09 07:03:11;;;;;;;7.13;5.05;;;;;;;9.86;65.00;99544.44;5036967;28;20424;-77
2021/01/09 07:05:44;;;;;;;8.45;5.50;;;;;;;9.79;64.95;99530.31;5036969;28;20021;-76
2021/01/09 07:08:11;;;;;;;9.82;6.53;;;;;;;9.82;64.63;99543.97;5036743;28;20025;-77
2021/01/09 07:10:56;;;;;;;10.02;7.25;;;;;;;9.71;64.68;99548.81;5036722;28;20025;-76
2021/01/09 07:13:22;;;;;;;9.32;6.90;;;;;;;9.48;65.01;99525.00;5037131;28;20108;-77
2021/01/09 07:16:06;;;;;;;10.90;6.55;;;;;;;9.57;65.09;99545.88;5035903;28;20396;-78
2021/01/09 07:18:33;;;;;;;11.40;6.85;;;;;;;9.35;65.24;99511.56;5037106;28;20455;-76
2021/01/09 07:21:02;;;;;;;9.70;7.05;;;;;;;9.62;65.27;99555.09;5036615;28;20029;-77
2021/01/09 07:23:28;;;;;;;11.20;7.65;;;;;;;9.61;65.42;99559.53;5035610;28;20021;-76
2021/01/09 07:25:55;;;;;;;10.18;7.40;;;;;;;9.33;65.25;99519.63;5036552;28;20099;-76
2021/01/09 07:28:23;;;;;;;8.80;6.53;;;;;;;9.45;65.31;99557.78;5036347;28;20028;-77
2021/01/09 07:31:08;;;;;;;8.80;5.70;;;;;;;9.53;65.52;99567.47;5036351;28;20025;-76
2021/01/09 07:33:34;;;;;;;7.10;5.38;;;;;;;9.48;65.57;99569.81;5036707;28;20033;-77
2021/01/09 07:36:01;;;;;;;7.32;4.53;;;;;;;9.57;65.28;99572.25;5035200;28;20028;-77
2021/01/09 07:38:26;;;;;;;4.45;3.55;;;;;;;9.22;65.22;99522.63;5036371;28;20025;-77
2021/01/09 07:40:56;;;;;;;4.68;3.28;;;;;;;9.62;65.23;99587.53;5036463;28;20041;-75
2021/01/09 07:43:41;;;;;;;4.57;3.55;;;;;;;9.66;65.65;99598.56;5036249;28;20477;-76
2021/01/09 07:46:36;;;;;;;3.80;3.35;;;;;;;9.62;64.91;99607.81;5036275;28;20454;-76
2021/01/09 07:49:03;;;;;;;3.03;2.50;;;;;;;9.64;65.23;99592.66;5023259;28;20052;-77
2021/01/09 07:51:52;;;;;;;3.80;3.17;;;;;;;9.43;65.37;99566.88;5036194;28;20029;-78
2021/01/09 07:54:40;;;;;;;3.90;3.25;;;;;;;9.61;65.07;99619.34;5034210;28;20108;-76
2021/01/09 07:57:18;;;;;;;4.72;3.88;;;;;;;9.59;65.07;99623.97;5036082;28;20459;-77
2021/01/09 08:00:03;;;;;;;4.03;3.10;;;;;;;8.95;65.19;99530.94;5034917;28;20025;-76
2021/01/09 08:02:31;;;;;;;4.55;2.97;;;;;;;9.63;64.90;99628.72;5034867;28;20164;-77
2021/01/09 08:05:08;;;;;;;4.10;3.05;;;;;;;9.64;65.31;99643.56;5034928;28;20029;-76
2021/01/09 08:07:48;;;;;;;3.13;2.53;;;;;;;9.19;65.16;99571.22;5036044;28;20021;-79
2021/01/09 08:10:20;;;;;;;5.72;3.95;;;;;;;9.66;64.70;99638.97;5035649;28;20440;-77
2021/01/09 08:12:51;;;;;;;4.82;4.30;;;;;;;9.61;64.89;99632.53;5035777;28;20018;-76
2021/01/09 08:15:16;;;;;;;4.80;3.72;;;;;;;9.65;64.75;99632.03;5034540;28;20029;-77
2021/01/09 08:17:41;;;;;;;5.97;4.78;;;;;;;9.77;64.79;99648.31;5035526;28;20450;-76
2021/01/09 08:20:12;;;;;;;8.38;6.55;;;;;;;9.69;65.30;99635.16;5035360;28;20009;-76
2021/01/09 08:22:38;;;;;;;7.35;5.30;;;;;;;9.69;65.47;99635.16;5035808;28;20094;-76
2021/01/09 08:25:11;;;;;;;5.13;4.13;;;;;;;9.70;65.08;99637.63;5034217;28;20033;-76
2021/01/09 08:27:44;;;;;;;7.47;5.50;;;;;;;9.69;65.01;99632.53;5035403;28;20027;-76
2021/01/09 08:30:11;;;;;;;7.40;5.25;;;;;;;9.57;65.20;99614.41;5035079;28;20025;-76
2021/01/09 08:32:37;;;;;;;7.70;5.30;;;;;;;9.48;64.81;99581.16;5035254;28;20026;-76
2021/01/09 08:35:03;;;;;;;7.60;4.85;;;;;;;9.85;64.91;99645.66;5035301;28;20087;-76
2021/01/09 08:37:29;;;;;;;6.65;5.20;;;;;;;9.85;64.87;99645.66;5035464;28;20021;-77
2021/01/09 08:39:56;;;;;;;9.55;6.63;;;;;;;9.86;64.81;99648.13;5035338;28;20049;-77
2021/01/09 08:42:21;;;;;;;11.10;8.05;;;;;;;9.64;65.25;99625.09;5033888;28;20440;-79
2021/01/09 08:44:48;;;;;;;9.38;7.47;;;;;;;9.65;65.18;99623.28;5035248;28;20025;-76
2021/01/09 08:47:17;;;;;;;8.80;7.03;;;;;;;9.57;65.02;99609.16;5033906;28;20044;-75
2021/01/09 08:49:46;;;;;;;9.82;6.78;;;;;;;9.64;64.97;99622.47;5035081;28;20101;-78
2021/01/09 08:52:20;;;;;;;9.55;7.32;;;;;;;9.89;64.64;99644.31;5034781;28;20447;-76
2021/01/09 08:54:47;;;;;;;11.85;7.88;;;;;;;9.87;64.92;99659.50;5034961;28;20032;-77
2021/01/09 08:57:13;;;;;;;10.88;6.97;;;;;;;9.78;64.89;99660.50;5034671;28;20095;-76
2021/01/09 08:59:39;;;;;;;7.72;5.72;;;;;;;9.44;65.19;99614.13;5034917;28;20025;-76
2021/01/09 09:02:11;;;;;;;7.05;5.43;;;;;;;9.69;65.36;99646.53;5034838;28;20028;-76
2021/01/09 09:04:42;;;;;;;8.30;6.40;;;;;;;9.71;65.55;99663.00;5034846;28;20109;-76
2021/01/09 09:07:09;;;;;;;9.68;6.93;;;;;;;9.44;65.65;99627.31;5033445;28;20029;-76
2021/01/09 09:09:39;;;;;;;12.75;8.63;;;;;;;9.67;65.54;99672.25;5034691;28;20332;-76
2021/01/09 09:12:06;;;;;;;16.40;10.23;;;;;;;9.25;65.73;99609.25;5034819;28;20017;-76
2021/01/09 09:14:32;;;;;;;14.15;9.45;;;;;;;9.69;65.94;99670.25;5034787;28;20025;-76
2021/01/09 09:17:00;;;;;;;11.80;8.93;;;;;;;9.05;65.73;99555.28;5034757;28;20032;-77
2021/01/09 09:19:26;;;;;;;11.63;8.20;;;;;;;9.83;65.79;99689.84;5034666;28;20014;-76
2021/01/09 09:21:57;;;;;;;9.82;7.20;;;;;;;9.68;65.24;99663.34;5034707;28;20031;-76
2021/01/09 09:24:41;;;;;;;11.15;7.32;;;;;;;9.34;65.52;99631.13;5034516;28;20021;-77
2021/01/09 09:27:26;;;;;;;10.80;8.07;;;;;;;9.74;65.41;99691.69;5034551;28;20339;-76
2021/01/09 09:30:03;;;;;;;3.72;2.97;;;;;;;9.62;65.59;99684.25;5034415;28;20022;-77
2021/01/09 09:32:28;;;;;;;6.70;4.60;;;;;;;9.45;65.84;99665.03;5033451;28;20037;-76
2021/01/09 09:34:54;;;;;;;5.95;4.45;;;;;;;9.54;65.85;99680.66;5033331;28;20017;-75
2021/01/09 09:37:20;;;;;;;6.10;4.57;;;;;;;9.27;65.85;99638.03;5034327;28;20440;-76
2021/01/09 09:39:45;;;;;;;6.43;4.88;;;;;;;9.42;65.99;99649.53;5033378;28;20072;-77
2021/01/09 09:42:11;;;;;;;8.75;5.95;;;;;;;9.33;66.25;99645.28;5034271;28;20029;-76
2021/01/09 09:44:45;;;;;;;8.82;5.90;;;;;;;9.63;65.54;99678.00;5034280;28;20033;-77
2021/01/09 09:47:27;;;;;;;9.35;6.38;;;;;;;9.60;65.55;99667.78;5034285;28;20028;-79
2021/01/09 09:49:52;;;;;;;;;;;;;;;9.54;66.03;99677.19;5034871;28;20451;-77
2021/01/09 09:52:19;;;;;;;10.48;7.85;;;;;;;9.33;65.81;99646.09;5034110;28;19923;-78
2021/01/09 09:54:45;;;;;;;9.50;7.25;;;;;;;9.60;65.58;99675.69;5033476;28;20325;-76
2021/01/09 09:57:21;;;;;;;13.38;8.52;;;;;;;9.33;65.64;99629.47;5034166;28;20056;-76
2021/01/09 09:59:47;;;;;;;10.05;6.85;;;;;;;9.09;65.44;99604.00;5034337;28;20018;-76
2021/01/09 10:02:19;;;;;;;8.15;6.57;;;;;;;9.38;65.62;99646.41;5033969;28;20025;-76
2021/01/09 10:04:45;;;;;;;9.82;7.15;;;;;;;9.55;66.00;99665.66;5034322;28;20028;-76
2021/01/09 10:07:21;;;;;;;10.00;6.70;;;;;;;9.37;65.67;99642.16;5033014;28;20108;-78
2021/01/09 10:09:46;;;;;;;6.80;5.05;;;;;;;9.54;65.86;99672.75;5034059;28;20021;-76
2021/01/09 10:12:12;;;;;;;6.53;4.80;;;;;;;9.24;65.90;99632.13;5034043;28;20343;-77
2021/01/09 10:14:37;;;;;;;6.22;5.57;;;;;;;9.51;65.83;99665.19;5034090;28;20025;-77
2021/01/09 10:17:03;;;;;;;7.97;6.65;;;;;;;9.54;65.88;99669.28;5035750;28;20063;-79
2021/01/09 10:19:28;;;;;;;7.95;5.80;;;;;;;9.14;65.78;99602.50;5038037;28;20049;-77
2021/01/09 10:21:53;;;;;;;8.15;6.75;;;;;;;8.97;66.01;99579.00;5037730;28;20431;-78
2021/01/09 10:24:19;;;;;;;6.80;5.53;;;;;;;9.53;65.83;99670.28;5036610;28;20025;-76
2021/01/09 10:26:44;;;;;;;10.82;7.32;;;;;;;9.52;65.84;99666.81;5037768;28;20033;-76
2021/01/09 10:29:10;;;;;;;10.27;8.05;;;;;;;9.21;65.81;99618.47;5036402;28;20343;-78
2021/01/09 10:31:37;;;;;;;6.65;5.93;;;;;;;9.44;65.42;99674.75;5037566;28;20108;-78
2021/01/09 10:34:05;;;;;;;10.05;7.70;;;;;;;9.29;65.48;99655.34;5036616;28;20025;-76
2021/01/09 10:36:33;;;;;;;8.88;6.50;;;;;;;9.38;65.53;99659.59;5037655;28;20104;-84
2021/01/09 10:38:59;;;;;;;9.30;6.25;;;;;;;9.22;65.06;99647.28;5037457;28;20045;-78
2021/01/09 10:41:25;;;;;;;8.07;7.15;;;;;;;9.41;65.56;99675.06;5037319;28;20450;-77
2021/01/09 10:43:52;;;;;;;10.77;8.02;;;;;;;9.43;65.97;99669.63;5037419;28;20021;-77
2021/01/09 10:46:25;;;;;;;12.07;8.45;;;;;;;9.37;65.89;99665.84;5037351;28;20033;-77
2021/01/09 10:48:51;;;;;;;11.45;8.20;;;;;;;9.05;65.65;99600.88;5037552;28;20033;-76
2021/01/09 10:51:18;;;;;;;14.32;8.45;;;;;;;9.02;65.14;99621.44;5037270;28;20018;-76
2021/01/09 10:53:43;;;;;;;12.77;8.27;;;;;;;9.49;65.80;99682.97;5036018;28;20517;-76
2021/01/09 10:56:09;;;;;;;12.43;9.07;;;;;;;9.28;65.47;99637.88;5037103;28;20126;-76
2021/01/09 10:58:35;;;;;;;11.32;7.80;;;;;;;9.29;65.68;99647.44;5037101;28;20033;-76
2021/01/09 11:01:01;;;;;;;11.50;8.45;;;;;;;8.96;65.49;99582.63;5036958;28;20099;-77
2021/01/09 11:03:26;;;;;;;11.57;8.55;;;;;;;9.28;65.06;99613.34;5036991;28;20017;-78
2021/01/09 11:05:51;;;;;;;11.60;8.73;;;;;;;9.41;65.10;99640.00;5036994;28;20320;-77
2021/01/09 11:08:17;;;;;;;10.98;8.68;;;;;;;9.21;65.15;99616.66;5035673;28;20025;-78
2021/01/09 11:10:42;;;;;;;13.00;8.93;;;;;;;9.60;65.10;99667.78;5036947;28;20389;-76
2021/01/09 11:13:08;;;;;;;13.63;10.20;;;;;;;9.22;65.41;99602.50;5035698;28;20055;-76
2021/01/09 11:15:33;;;;;;;8.98;7.15;;;;;;;9.32;64.90;99622.56;5036713;28;20029;-77
2021/01/09 11:17:58;;;;;;;13.55;8.85;;;;;;;9.36;64.97;99639.69;5036732;28;20029;-77
2021/01/09 11:20:24;;;;;;;12.82;9.32;;;;;;;9.34;65.09;99666.19;5036539;28;20479;-77
2021/01/09 11:22:49;;;;;;;12.68;8.80;;;;;;;8.94;65.38;99609.13;5035440;28;20025;-77
2021/01/09 11:25:15;;;;;;;12.18;9.38;;;;;;;9.09;65.96;99633.78;5036436;28;20017;-77
2021/01/09 11:27:40;;;;;;;5.75;5.00;;;;;;;9.20;65.91;99653.69;5035885;28;20029;-78
2021/01/09 11:30:06;;;;;;;5.70;4.65;;;;;;;9.04;65.28;99622.09;5035897;28;20026;-76
2021/01/09 11:32:31;;;;;;;6.82;4.40;;;;;;;9.39;65.80;99686.78;5036535;28;20108;-77
2021/01/09 11:34:57;;;;;;;6.82;4.38;;;;;;;9.18;65.88;99659.13;5036379;28;20470;-77
2021/01/09 11:37:23;;;;;;;6.47;5.45;;;;;;;9.16;65.85;99671.66;5036260;28;20029;-77